sensor_id;sensor_type;location;lat;lon;timestamp;temperature;humidity
68248;SHT30;55064;49.636;12.164;2023-08-06T00:02:38;14.74;95.82
68248;SHT30;55064;49.636;12.164;2023-08-06T00:05:06;14.75;95.63
68248;SHT30;55064;49.636;12.164;2023-08-06T00:07:34;14.74;95.63
68248;SHT30;55064;49.636;12.164;2023-08-06T00:09:59;14.76;95.78
68248;SHT30;55064;49.636;12.164;2023-08-06T00:12:25;14.75;95.64
68248;SHT30;55064;49.636;12.164;2023-08-06T00:14:53;14.71;95.83
68248;SHT30;55064;49.636;12.164;2023-08-06T00:17:19;14.71;95.85
68248;SHT30;55064;49.636;12.164;2023-08-06T00:19:45;14.72;95.72
68248;SHT30;55064;49.636;12.164;2023-08-06T00:22:11;14.74;95.69
68248;SHT30;55064;49.636;12.164;2023-08-06T00:24:37;14.68;95.98
68248;SHT30;55064;49.636;12.164;2023-08-06T00:27:02;14.65;96.12
68248;SHT30;55064;49.636;12.164;2023-08-06T00:29:28;14.69;95.90
68248;SHT30;55064;49.636;12.164;2023-08-06T00:31:54;14.67;96.10
68248;SHT30;55064;49.636;12.164;2023-08-06T00:34:21;14.69;95.97
68248;SHT30;55064;49.636;12.164;2023-08-06T00:36:46;14.75;95.77
68248;SHT30;55064;49.636;12.164;2023-08-06T00:39:12;14.75;95.50
68248;SHT30;55064;49.636;12.164;2023-08-06T00:41:39;14.72;95.56
68248;SHT30;55064;49.636;12.164;2023-08-06T00:44:04;14.60;96.24
68248;SHT30;55064;49.636;12.164;2023-08-06T00:46:29;14.60;96.45
68248;SHT30;55064;49.636;12.164;2023-08-06T00:48:58;14.48;96.92
68248;SHT30;55064;49.636;12.164;2023-08-06T00:51:24;14.51;96.73
68248;SHT30;55064;49.636;12.164;2023-08-06T00:53:52;14.48;96.46
68248;SHT30;55064;49.636;12.164;2023-08-06T00:56:20;14.54;96.38
68248;SHT30;55064;49.636;12.164;2023-08-06T00:58:46;14.58;95.99
68248;SHT30;55064;49.636;12.164;2023-08-06T01:01:11;14.61;95.79
68248;SHT30;55064;49.636;12.164;2023-08-06T01:03:39;14.63;95.66
68248;SHT30;55064;49.636;12.164;2023-08-06T01:06:05;14.71;95.26
68248;SHT30;55064;49.636;12.164;2023-08-06T01:13:45;14.72;94.99
68248;SHT30;55064;49.636;12.164;2023-08-06T01:16:15;14.69;95.42
68248;SHT30;55064;49.636;12.164;2023-08-06T01:18:40;14.68;95.63
68248;SHT30;55064;49.636;12.164;2023-08-06T01:21:07;14.65;95.70
68248;SHT30;55064;49.636;12.164;2023-08-06T01:23:32;14.68;95.68
68248;SHT30;55064;49.636;12.164;2023-08-06T01:26:08;14.61;95.86
68248;SHT30;55064;49.636;12.164;2023-08-06T01:31:27;14.61;95.75
68248;SHT30;55064;49.636;12.164;2023-08-06T01:33:53;14.68;95.62
68248;SHT30;55064;49.636;12.164;2023-08-06T01:36:21;14.64;95.97
68248;SHT30;55064;49.636;12.164;2023-08-06T01:38:50;14.65;96.14
68248;SHT30;55064;49.636;12.164;2023-08-06T01:41:15;14.65;96.06
68248;SHT30;55064;49.636;12.164;2023-08-06T01:43:43;14.64;95.44
68248;SHT30;55064;49.636;12.164;2023-08-06T01:46:12;14.65;95.39
68248;SHT30;55064;49.636;12.164;2023-08-06T01:48:42;14.71;95.34
68248;SHT30;55064;49.636;12.164;2023-08-06T01:51:07;14.64;95.57
68248;SHT30;55064;49.636;12.164;2023-08-06T01:53:35;14.58;94.61
68248;SHT30;55064;49.636;12.164;2023-08-06T01:56:02;14.63;94.61
68248;SHT30;55064;49.636;12.164;2023-08-06T01:58:28;14.64;94.90
68248;SHT30;55064;49.636;12.164;2023-08-06T02:00:53;14.61;94.77
68248;SHT30;55064;49.636;12.164;2023-08-06T02:03:18;14.63;94.77
68248;SHT30;55064;49.636;12.164;2023-08-06T02:05:44;14.58;95.32
68248;SHT30;55064;49.636;12.164;2023-08-06T02:08:11;14.51;95.10
68248;SHT30;55064;49.636;12.164;2023-08-06T02:10:39;14.45;95.62
68248;SHT30;55064;49.636;12.164;2023-08-06T02:13:04;14.47;95.78
68248;SHT30;55064;49.636;12.164;2023-08-06T02:15:30;14.45;95.73
68248;SHT30;55064;49.636;12.164;2023-08-06T02:17:55;14.42;95.81
68248;SHT30;55064;49.636;12.164;2023-08-06T02:20:21;14.51;96.08
68248;SHT30;55064;49.636;12.164;2023-08-06T02:22:46;14.52;95.79
68248;SHT30;55064;49.636;12.164;2023-08-06T02:25:12;14.45;95.69
68248;SHT30;55064;49.636;12.164;2023-08-06T02:27:42;14.45;95.74
68248;SHT30;55064;49.636;12.164;2023-08-06T02:30:07;14.47;96.04
68248;SHT30;55064;49.636;12.164;2023-08-06T02:32:33;14.40;96.54
68248;SHT30;55064;49.636;12.164;2023-08-06T02:35:03;14.36;97.06
68248;SHT30;55064;49.636;12.164;2023-08-06T02:37:28;14.34;97.10
68248;SHT30;55064;49.636;12.164;2023-08-06T02:39:55;14.33;96.96
68248;SHT30;55064;49.636;12.164;2023-08-06T02:42:20;14.31;96.94
68248;SHT30;55064;49.636;12.164;2023-08-06T02:44:46;14.34;96.49
68248;SHT30;55064;49.636;12.164;2023-08-06T02:47:13;14.41;96.31
68248;SHT30;55064;49.636;12.164;2023-08-06T02:49:41;14.44;96.62
68248;SHT30;55064;49.636;12.164;2023-08-06T02:52:06;14.40;96.24
68248;SHT30;55064;49.636;12.164;2023-08-06T02:54:32;14.33;96.51
68248;SHT30;55064;49.636;12.164;2023-08-06T02:56:57;14.31;96.43
68248;SHT30;55064;49.636;12.164;2023-08-06T02:59:25;14.30;96.32
68248;SHT30;55064;49.636;12.164;2023-08-06T03:01:50;14.36;96.30
68248;SHT30;55064;49.636;12.164;2023-08-06T03:04:16;14.36;96.54
68248;SHT30;55064;49.636;12.164;2023-08-06T03:06:44;14.24;96.92
68248;SHT30;55064;49.636;12.164;2023-08-06T03:09:09;14.23;97.34
68248;SHT30;55064;49.636;12.164;2023-08-06T03:11:35;14.24;97.15
68248;SHT30;55064;49.636;12.164;2023-08-06T03:14:00;14.24;97.21
68248;SHT30;55064;49.636;12.164;2023-08-06T03:16:28;14.23;97.21
68248;SHT30;55064;49.636;12.164;2023-08-06T03:18:53;14.20;96.95
68248;SHT30;55064;49.636;12.164;2023-08-06T03:21:19;14.13;97.99
68248;SHT30;55064;49.636;12.164;2023-08-06T03:23:47;14.12;97.88
68248;SHT30;55064;49.636;12.164;2023-08-06T03:26:13;14.19;97.97
68248;SHT30;55064;49.636;12.164;2023-08-06T03:28:39;14.21;97.68
68248;SHT30;55064;49.636;12.164;2023-08-06T03:31:04;14.20;97.67
68248;SHT30;55064;49.636;12.164;2023-08-06T03:33:32;14.20;97.97
68248;SHT30;55064;49.636;12.164;2023-08-06T03:35:57;14.12;97.77
68248;SHT30;55064;49.636;12.164;2023-08-06T03:38:27;14.12;97.82
68248;SHT30;55064;49.636;12.164;2023-08-06T03:40:53;14.12;98.05
68248;SHT30;55064;49.636;12.164;2023-08-06T03:43:20;14.12;98.02
68248;SHT30;55064;49.636;12.164;2023-08-06T03:45:45;14.12;98.03
68248;SHT30;55064;49.636;12.164;2023-08-06T03:48:11;14.00;98.23
68248;SHT30;55064;49.636;12.164;2023-08-06T03:50:37;13.96;98.44
68248;SHT30;55064;49.636;12.164;2023-08-06T03:53:04;13.98;98.15
68248;SHT30;55064;49.636;12.164;2023-08-06T03:55:29;13.98;98.40
68248;SHT30;55064;49.636;12.164;2023-08-06T03:57:56;13.98;98.25
68248;SHT30;55064;49.636;12.164;2023-08-06T04:00:21;14.05;98.24
68248;SHT30;55064;49.636;12.164;2023-08-06T04:02:49;13.99;97.66
68248;SHT30;55064;49.636;12.164;2023-08-06T04:05:15;13.95;98.11
68248;SHT30;55064;49.636;12.164;2023-08-06T04:07:43;13.90;97.84
68248;SHT30;55064;49.636;12.164;2023-08-06T04:10:09;13.93;97.66
68248;SHT30;55064;49.636;12.164;2023-08-06T04:12:34;13.93;97.86
68248;SHT30;55064;49.636;12.164;2023-08-06T04:15:03;13.96;97.80
68248;SHT30;55064;49.636;12.164;2023-08-06T04:24:12;14.05;97.49
68248;SHT30;55064;49.636;12.164;2023-08-06T04:30:00;14.08;96.63
68248;SHT30;55064;49.636;12.164;2023-08-06T04:35:47;14.05;96.70
68248;SHT30;55064;49.636;12.164;2023-08-06T04:41:34;14.00;96.54
68248;SHT30;55064;49.636;12.164;2023-08-06T04:44:02;13.96;96.56
68248;SHT30;55064;49.636;12.164;2023-08-06T04:46:29;14.00;96.77
68248;SHT30;55064;49.636;12.164;2023-08-06T04:52:22;13.95;97.28
68248;SHT30;55064;49.636;12.164;2023-08-06T04:58:12;13.96;97.11
68248;SHT30;55064;49.636;12.164;2023-08-06T05:00:44;13.95;97.48
68248;SHT30;55064;49.636;12.164;2023-08-06T05:06:31;13.87;97.35
68248;SHT30;55064;49.636;12.164;2023-08-06T05:15:41;13.87;96.76
68248;SHT30;55064;49.636;12.164;2023-08-06T05:21:29;14.02;96.45
68248;SHT30;55064;49.636;12.164;2023-08-06T05:27:16;13.95;96.01
68248;SHT30;55064;49.636;12.164;2023-08-06T05:36:27;14.08;95.54
68248;SHT30;55064;49.636;12.164;2023-08-06T05:42:14;14.19;94.97
68248;SHT30;55064;49.636;12.164;2023-08-06T05:48:01;14.21;95.40
68248;SHT30;55064;49.636;12.164;2023-08-06T05:54:05;14.17;94.70
68248;SHT30;55064;49.636;12.164;2023-08-06T05:56:38;14.23;94.29
68248;SHT30;55064;49.636;12.164;2023-08-06T06:02:25;14.38;93.46
68248;SHT30;55064;49.636;12.164;2023-08-06T06:11:28;14.44;93.89
68248;SHT30;55064;49.636;12.164;2023-08-06T06:14:00;14.38;93.94
68248;SHT30;55064;49.636;12.164;2023-08-06T06:22:56;14.75;93.79
68248;SHT30;55064;49.636;12.164;2023-08-06T06:25:42;14.78;93.42
68248;SHT30;55064;49.636;12.164;2023-08-06T06:28:08;14.91;93.63
68248;SHT30;55064;49.636;12.164;2023-08-06T06:33:55;15.13;92.16
68248;SHT30;55064;49.636;12.164;2023-08-06T06:36:35;15.14;91.40
68248;SHT30;55064;49.636;12.164;2023-08-06T06:48:50;15.20;89.94
68248;SHT30;55064;49.636;12.164;2023-08-06T06:57:41;15.30;90.11
68248;SHT30;55064;49.636;12.164;2023-08-06T07:00:09;15.43;89.78
68248;SHT30;55064;49.636;12.164;2023-08-06T07:02:36;15.46;89.51
68248;SHT30;55064;49.636;12.164;2023-08-06T07:05:28;15.48;89.18
68248;SHT30;55064;49.636;12.164;2023-08-06T07:08:01;15.57;88.87
68248;SHT30;55064;49.636;12.164;2023-08-06T07:13:56;15.78;89.38
68248;SHT30;55064;49.636;12.164;2023-08-06T07:19:55;15.88;89.35
68248;SHT30;55064;49.636;12.164;2023-08-06T07:22:27;15.95;89.64
68248;SHT30;55064;49.636;12.164;2023-08-06T07:34:46;16.08;89.49
68248;SHT30;55064;49.636;12.164;2023-08-06T07:37:43;16.22;89.17
68248;SHT30;55064;49.636;12.164;2023-08-06T07:43:31;16.09;87.54
68248;SHT30;55064;49.636;12.164;2023-08-06T07:52:43;16.37;87.13
68248;SHT30;55064;49.636;12.164;2023-08-06T08:01:54;16.33;85.65
68248;SHT30;55064;49.636;12.164;2023-08-06T08:04:21;16.34;85.45
68248;SHT30;55064;49.636;12.164;2023-08-06T08:07:09;16.36;85.29
68248;SHT30;55064;49.636;12.164;2023-08-06T08:13:09;16.44;85.05
68248;SHT30;55064;49.636;12.164;2023-08-06T08:15:42;16.44;84.84
68248;SHT30;55064;49.636;12.164;2023-08-06T08:18:21;16.54;84.12
68248;SHT30;55064;49.636;12.164;2023-08-06T08:20:46;16.91;83.89
68248;SHT30;55064;49.636;12.164;2023-08-06T08:23:12;17.46;81.96
68248;SHT30;55064;49.636;12.164;2023-08-06T08:25:38;17.66;81.60
68248;SHT30;55064;49.636;12.164;2023-08-06T08:28:06;17.87;80.38
68248;SHT30;55064;49.636;12.164;2023-08-06T08:30:33;18.10;79.67
68248;SHT30;55064;49.636;12.164;2023-08-06T08:32:59;17.89;78.96
68248;SHT30;55064;49.636;12.164;2023-08-06T08:35:27;17.49;79.73
68248;SHT30;55064;49.636;12.164;2023-08-06T08:37:54;17.44;79.61
68248;SHT30;55064;49.636;12.164;2023-08-06T08:40:23;17.33;81.12
68248;SHT30;55064;49.636;12.164;2023-08-06T08:42:54;17.29;82.24
68248;SHT30;55064;49.636;12.164;2023-08-06T08:45:22;16.95;82.41
68248;SHT30;55064;49.636;12.164;2023-08-06T08:47:51;17.08;82.44
68248;SHT30;55064;49.636;12.164;2023-08-06T08:50:17;16.96;82.08
68248;SHT30;55064;49.636;12.164;2023-08-06T08:52:47;17.06;82.29
68248;SHT30;55064;49.636;12.164;2023-08-06T08:55:15;17.44;81.08
68248;SHT30;55064;49.636;12.164;2023-08-06T08:57:43;17.49;81.27
68248;SHT30;55064;49.636;12.164;2023-08-06T09:00:09;17.50;80.21
68248;SHT30;55064;49.636;12.164;2023-08-06T09:02:36;17.54;80.79
68248;SHT30;55064;49.636;12.164;2023-08-06T09:05:04;17.59;80.92
68248;SHT30;55064;49.636;12.164;2023-08-06T09:07:35;17.61;78.55
68248;SHT30;55064;49.636;12.164;2023-08-06T09:10:06;17.59;78.16
68248;SHT30;55064;49.636;12.164;2023-08-06T09:12:34;17.54;78.01
68248;SHT30;55064;49.636;12.164;2023-08-06T09:14:59;17.53;77.41
68248;SHT30;55064;49.636;12.164;2023-08-06T09:17:25;17.50;78.03
68248;SHT30;55064;49.636;12.164;2023-08-06T09:19:50;17.51;77.63
68248;SHT30;55064;49.636;12.164;2023-08-06T09:22:16;17.50;78.07
68248;SHT30;55064;49.636;12.164;2023-08-06T09:24:43;17.64;78.64
68248;SHT30;55064;49.636;12.164;2023-08-06T09:27:12;17.78;78.64
68248;SHT30;55064;49.636;12.164;2023-08-06T09:29:44;17.82;78.86
68248;SHT30;55064;49.636;12.164;2023-08-06T09:32:11;17.80;78.78
68248;SHT30;55064;49.636;12.164;2023-08-06T09:34:39;17.47;77.08
68248;SHT30;55064;49.636;12.164;2023-08-06T09:37:04;17.40;76.15
68248;SHT30;55064;49.636;12.164;2023-08-06T09:39:30;18.06;76.27
68248;SHT30;55064;49.636;12.164;2023-08-06T09:41:57;18.54;76.06
68248;SHT30;55064;49.636;12.164;2023-08-06T09:44:25;18.98;75.04
68248;SHT30;55064;49.636;12.164;2023-08-06T09:46:55;19.18;73.54
68248;SHT30;55064;49.636;12.164;2023-08-06T09:49:26;19.62;71.47
68248;SHT30;55064;49.636;12.164;2023-08-06T09:51:52;19.91;71.16
68248;SHT30;55064;49.636;12.164;2023-08-06T09:54:23;20.36;69.29
68248;SHT30;55064;49.636;12.164;2023-08-06T09:56:48;19.81;70.16
68248;SHT30;55064;49.636;12.164;2023-08-06T09:59:15;19.40;70.51
68248;SHT30;55064;49.636;12.164;2023-08-06T10:01:41;18.95;72.12
68248;SHT30;55064;49.636;12.164;2023-08-06T10:04:07;18.85;72.73
68248;SHT30;55064;49.636;12.164;2023-08-06T10:06:34;18.64;73.50
68248;SHT30;55064;49.636;12.164;2023-08-06T10:09:03;18.98;72.80
68248;SHT30;55064;49.636;12.164;2023-08-06T10:11:30;19.66;71.06
68248;SHT30;55064;49.636;12.164;2023-08-06T10:14:04;20.29;66.46
68248;SHT30;55064;49.636;12.164;2023-08-06T10:16:32;20.32;66.25
68248;SHT30;55064;49.636;12.164;2023-08-06T10:18:58;20.53;65.76
68248;SHT30;55064;49.636;12.164;2023-08-06T10:21:25;20.02;65.69
68248;SHT30;55064;49.636;12.164;2023-08-06T10:23:56;19.88;67.25
68248;SHT30;55064;49.636;12.164;2023-08-06T10:26:30;19.46;68.31
68248;SHT30;55064;49.636;12.164;2023-08-06T10:28:56;19.19;69.15
68248;SHT30;55064;49.636;12.164;2023-08-06T10:31:55;18.81;68.69
68248;SHT30;55064;49.636;12.164;2023-08-06T10:34:20;17.78;71.98
68248;SHT30;55064;49.636;12.164;2023-08-06T10:36:46;17.36;78.15
68248;SHT30;55064;49.636;12.164;2023-08-06T10:39:14;16.71;80.99
68248;SHT30;55064;49.636;12.164;2023-08-06T10:41:42;16.56;82.51
68248;SHT30;55064;49.636;12.164;2023-08-06T10:44:08;16.39;84.24
68248;SHT30;55064;49.636;12.164;2023-08-06T10:46:34;16.46;85.69
68248;SHT30;55064;49.636;12.164;2023-08-06T10:49:01;16.49;86.33
68248;SHT30;55064;49.636;12.164;2023-08-06T10:51:26;16.43;86.87
68248;SHT30;55064;49.636;12.164;2023-08-06T10:53:53;16.43;87.10
68248;SHT30;55064;49.636;12.164;2023-08-06T10:56:21;16.47;87.37
68248;SHT30;55064;49.636;12.164;2023-08-06T10:58:48;16.49;87.75
68248;SHT30;55064;49.636;12.164;2023-08-06T11:01:16;16.46;87.05
68248;SHT30;55064;49.636;12.164;2023-08-06T11:03:43;16.72;88.42
68248;SHT30;55064;49.636;12.164;2023-08-06T11:06:09;16.65;87.08
68248;SHT30;55064;49.636;12.164;2023-08-06T11:08:37;17.09;87.78
68248;SHT30;55064;49.636;12.164;2023-08-06T11:11:09;17.50;86.02
68248;SHT30;55064;49.636;12.164;2023-08-06T11:13:37;17.73;83.50
68248;SHT30;55064;49.636;12.164;2023-08-06T11:16:08;18.29;84.14
68248;SHT30;55064;49.636;12.164;2023-08-06T11:18:36;18.09;83.76
68248;SHT30;55064;49.636;12.164;2023-08-06T11:21:02;18.40;81.75
68248;SHT30;55064;49.636;12.164;2023-08-06T11:23:28;18.57;82.40
68248;SHT30;55064;49.636;12.164;2023-08-06T11:25:57;19.32;81.12
68248;SHT30;55064;49.636;12.164;2023-08-06T11:28:23;19.28;79.18
68248;SHT30;55064;49.636;12.164;2023-08-06T11:30:49;19.36;79.01
68248;SHT30;55064;49.636;12.164;2023-08-06T11:33:14;19.37;78.17
68248;SHT30;55064;49.636;12.164;2023-08-06T11:35:40;19.91;76.80
68248;SHT30;55064;49.636;12.164;2023-08-06T11:38:09;20.05;74.85
68248;SHT30;55064;49.636;12.164;2023-08-06T11:40:35;20.02;74.98
68248;SHT30;55064;49.636;12.164;2023-08-06T11:43:08;19.43;75.08
68248;SHT30;55064;49.636;12.164;2023-08-06T11:45:40;19.20;75.29
68248;SHT30;55064;49.636;12.164;2023-08-06T11:48:11;18.81;74.63
68248;SHT30;55064;49.636;12.164;2023-08-06T11:50:37;18.40;75.18
68248;SHT30;55064;49.636;12.164;2023-08-06T11:53:27;18.43;76.98
68248;SHT30;55064;49.636;12.164;2023-08-06T11:55:55;18.70;76.27
68248;SHT30;55064;49.636;12.164;2023-08-06T12:01:43;18.97;74.95
68248;SHT30;55064;49.636;12.164;2023-08-06T12:04:08;19.32;74.32
68248;SHT30;55064;49.636;12.164;2023-08-06T12:06:41;19.25;74.55
68248;SHT30;55064;49.636;12.164;2023-08-06T12:09:07;19.32;74.74
68248;SHT30;55064;49.636;12.164;2023-08-06T12:11:35;19.08;75.24
68248;SHT30;55064;49.636;12.164;2023-08-06T12:14:00;19.49;73.69
68248;SHT30;55064;49.636;12.164;2023-08-06T12:16:26;19.75;71.36
68248;SHT30;55064;49.636;12.164;2023-08-06T12:18:51;19.88;69.64
68248;SHT30;55064;49.636;12.164;2023-08-06T12:21:16;20.04;68.79
68248;SHT30;55064;49.636;12.164;2023-08-06T12:23:42;20.45;68.61
68248;SHT30;55064;49.636;12.164;2023-08-06T12:26:07;20.36;69.47
68248;SHT30;55064;49.636;12.164;2023-08-06T12:28:33;20.21;69.41
68248;SHT30;55064;49.636;12.164;2023-08-06T12:30:59;19.91;70.57
68248;SHT30;55064;49.636;12.164;2023-08-06T12:33:24;19.62;72.11
68248;SHT30;55064;49.636;12.164;2023-08-06T12:35:52;19.37;72.90
68248;SHT30;55064;49.636;12.164;2023-08-06T12:38:20;19.20;72.74
68248;SHT30;55064;49.636;12.164;2023-08-06T12:40:48;19.25;71.79
68248;SHT30;55064;49.636;12.164;2023-08-06T12:43:16;19.53;71.72
68248;SHT30;55064;49.636;12.164;2023-08-06T12:45:42;20.14;71.55
68248;SHT30;55064;49.636;12.164;2023-08-06T12:48:07;20.35;70.26
68248;SHT30;55064;49.636;12.164;2023-08-06T12:50:33;19.98;70.79
68248;SHT30;55064;49.636;12.164;2023-08-06T12:52:58;20.76;69.94
68248;SHT30;55064;49.636;12.164;2023-08-06T12:55:23;20.88;67.91
68248;SHT30;55064;49.636;12.164;2023-08-06T12:57:49;21.00;68.29
68248;SHT30;55064;49.636;12.164;2023-08-06T13:00:14;20.62;68.27
68248;SHT30;55064;49.636;12.164;2023-08-06T13:02:39;20.49;69.61
68248;SHT30;55064;49.636;12.164;2023-08-06T13:05:05;20.05;68.86
68248;SHT30;55064;49.636;12.164;2023-08-06T13:07:34;19.57;69.95
68248;SHT30;55064;49.636;12.164;2023-08-06T13:10:04;19.39;72.89
68248;SHT30;55064;49.636;12.164;2023-08-06T13:12:31;19.62;72.47
68248;SHT30;55064;49.636;12.164;2023-08-06T13:15:05;19.71;71.40
68248;SHT30;55064;49.636;12.164;2023-08-06T13:17:32;20.04;68.75
68248;SHT30;55064;49.636;12.164;2023-08-06T13:20:00;20.30;68.39
68248;SHT30;55064;49.636;12.164;2023-08-06T13:22:25;20.57;67.97
68248;SHT30;55064;49.636;12.164;2023-08-06T13:24:53;21.15;68.13
68248;SHT30;55064;49.636;12.164;2023-08-06T13:27:20;21.08;67.55
68248;SHT30;55064;49.636;12.164;2023-08-06T13:29:47;21.21;67.14
68248;SHT30;55064;49.636;12.164;2023-08-06T13:32:12;20.80;67.59
68248;SHT30;55064;49.636;12.164;2023-08-06T13:34:39;21.18;66.71
68248;SHT30;55064;49.636;12.164;2023-08-06T13:37:05;20.47;67.35
68248;SHT30;55064;49.636;12.164;2023-08-06T13:39:33;20.22;69.06
68248;SHT30;55064;49.636;12.164;2023-08-06T13:42:02;19.85;69.08
68248;SHT30;55064;49.636;12.164;2023-08-06T13:44:29;19.94;69.37
68248;SHT30;55064;49.636;12.164;2023-08-06T13:46:54;19.98;69.94
68248;SHT30;55064;49.636;12.164;2023-08-06T13:49:19;19.84;69.07
68248;SHT30;55064;49.636;12.164;2023-08-06T13:51:45;19.42;70.19
68248;SHT30;55064;49.636;12.164;2023-08-06T13:54:13;19.18;70.21
68248;SHT30;55064;49.636;12.164;2023-08-06T13:56:39;19.12;71.27
68248;SHT30;55064;49.636;12.164;2023-08-06T13:59:04;18.52;79.47
68248;SHT30;55064;49.636;12.164;2023-08-06T14:01:32;17.91;80.73
68248;SHT30;55064;49.636;12.164;2023-08-06T14:03:58;17.66;80.52
68248;SHT30;55064;49.636;12.164;2023-08-06T14:06:23;17.49;82.78
68248;SHT30;55064;49.636;12.164;2023-08-06T14:08:51;17.57;82.70
68248;SHT30;55064;49.636;12.164;2023-08-06T14:11:18;17.51;82.63
68248;SHT30;55064;49.636;12.164;2023-08-06T14:13:46;17.47;82.72
68248;SHT30;55064;49.636;12.164;2023-08-06T14:16:12;17.71;84.13
68248;SHT30;55064;49.636;12.164;2023-08-06T14:18:37;17.81;85.98
68248;SHT30;55064;49.636;12.164;2023-08-06T14:21:05;17.82;84.22
68248;SHT30;55064;49.636;12.164;2023-08-06T14:23:31;17.71;84.02
68248;SHT30;55064;49.636;12.164;2023-08-06T14:25:57;17.74;83.06
68248;SHT30;55064;49.636;12.164;2023-08-06T14:28:25;17.73;83.90
68248;SHT30;55064;49.636;12.164;2023-08-06T14:30:52;17.66;85.14
68248;SHT30;55064;49.636;12.164;2023-08-06T14:33:19;17.70;84.38
68248;SHT30;55064;49.636;12.164;2023-08-06T14:35:44;18.05;83.07
68248;SHT30;55064;49.636;12.164;2023-08-06T14:38:10;18.47;83.66
68248;SHT30;55064;49.636;12.164;2023-08-06T14:40:35;18.44;83.93
68248;SHT30;55064;49.636;12.164;2023-08-06T14:43:05;18.13;82.20
68248;SHT30;55064;49.636;12.164;2023-08-06T14:45:30;17.95;83.40
68248;SHT30;55064;49.636;12.164;2023-08-06T14:47:56;17.77;84.83
68248;SHT30;55064;49.636;12.164;2023-08-06T14:50:23;17.18;82.65
68248;SHT30;55064;49.636;12.164;2023-08-06T14:52:48;16.50;84.58
68248;SHT30;55064;49.636;12.164;2023-08-06T14:55:24;16.13;86.65
68248;SHT30;55064;49.636;12.164;2023-08-06T14:57:50;15.99;88.59
68248;SHT30;55064;49.636;12.164;2023-08-06T15:00:18;16.08;89.22
68248;SHT30;55064;49.636;12.164;2023-08-06T15:02:43;16.12;88.82
68248;SHT30;55064;49.636;12.164;2023-08-06T15:05:09;15.99;89.87
68248;SHT30;55064;49.636;12.164;2023-08-06T15:07:34;16.05;89.41
68248;SHT30;55064;49.636;12.164;2023-08-06T15:10:04;16.15;89.96
68248;SHT30;55064;49.636;12.164;2023-08-06T15:12:31;16.06;89.52
68248;SHT30;55064;49.636;12.164;2023-08-06T15:15:00;16.10;90.09
68248;SHT30;55064;49.636;12.164;2023-08-06T15:17:28;16.19;90.57
68248;SHT30;55064;49.636;12.164;2023-08-06T15:19:58;15.99;90.82
68248;SHT30;55064;49.636;12.164;2023-08-06T15:22:24;15.98;90.90
68248;SHT30;55064;49.636;12.164;2023-08-06T15:24:49;15.91;91.12
68248;SHT30;55064;49.636;12.164;2023-08-06T15:27:15;16.01;91.27
68248;SHT30;55064;49.636;12.164;2023-08-06T15:29:40;15.96;91.60
68248;SHT30;55064;49.636;12.164;2023-08-06T15:32:10;15.91;91.33
68248;SHT30;55064;49.636;12.164;2023-08-06T15:34:35;15.79;91.29
68248;SHT30;55064;49.636;12.164;2023-08-06T15:37:03;15.89;91.92
68248;SHT30;55064;49.636;12.164;2023-08-06T15:39:29;15.89;91.37
68248;SHT30;55064;49.636;12.164;2023-08-06T15:41:54;15.91;91.89
68248;SHT30;55064;49.636;12.164;2023-08-06T15:44:24;15.77;91.67
68248;SHT30;55064;49.636;12.164;2023-08-06T15:46:49;15.82;91.95
68248;SHT30;55064;49.636;12.164;2023-08-06T15:49:14;15.91;91.84
68248;SHT30;55064;49.636;12.164;2023-08-06T15:51:41;15.96;92.47
68248;SHT30;55064;49.636;12.164;2023-08-06T15:54:09;15.84;92.37
68248;SHT30;55064;49.636;12.164;2023-08-06T15:56:35;15.77;92.12
68248;SHT30;55064;49.636;12.164;2023-08-06T16:01:48;15.54;92.48
68248;SHT30;55064;49.636;12.164;2023-08-06T16:04:14;15.44;92.28
68248;SHT30;55064;49.636;12.164;2023-08-06T16:06:39;15.29;92.86
68248;SHT30;55064;49.636;12.164;2023-08-06T16:09:08;15.07;92.19
68248;SHT30;55064;49.636;12.164;2023-08-06T16:11:34;15.16;92.71
68248;SHT30;55064;49.636;12.164;2023-08-06T16:13:59;15.10;90.97
68248;SHT30;55064;49.636;12.164;2023-08-06T16:16:27;15.18;91.56
68248;SHT30;55064;49.636;12.164;2023-08-06T16:18:53;15.19;91.04
68248;SHT30;55064;49.636;12.164;2023-08-06T16:21:18;15.22;90.12
68248;SHT30;55064;49.636;12.164;2023-08-06T16:23:44;15.30;90.03
68248;SHT30;55064;49.636;12.164;2023-08-06T16:26:12;15.37;90.43
68248;SHT30;55064;49.636;12.164;2023-08-06T16:28:40;15.34;90.10
68248;SHT30;55064;49.636;12.164;2023-08-06T16:31:06;15.13;89.63
68248;SHT30;55064;49.636;12.164;2023-08-06T16:33:31;15.07;90.32
68248;SHT30;55064;49.636;12.164;2023-08-06T16:35:57;14.93;90.66
68248;SHT30;55064;49.636;12.164;2023-08-06T16:38:22;14.89;91.21
68248;SHT30;55064;49.636;12.164;2023-08-06T16:40:57;14.76;92.49
68248;SHT30;55064;49.636;12.164;2023-08-06T16:43:23;14.65;93.14
68248;SHT30;55064;49.636;12.164;2023-08-06T16:45:49;14.67;93.24
68248;SHT30;55064;49.636;12.164;2023-08-06T16:48:15;14.71;93.03
68248;SHT30;55064;49.636;12.164;2023-08-06T16:50:40;14.68;92.56
68248;SHT30;55064;49.636;12.164;2023-08-06T16:53:07;14.58;91.52
68248;SHT30;55064;49.636;12.164;2023-08-06T16:55:32;14.44;92.05
68248;SHT30;55064;49.636;12.164;2023-08-06T16:57:58;14.40;92.40
68248;SHT30;55064;49.636;12.164;2023-08-06T17:00:23;14.40;92.26
68248;SHT30;55064;49.636;12.164;2023-08-06T17:02:49;14.48;91.91
68248;SHT30;55064;49.636;12.164;2023-08-06T17:05:15;14.33;91.82
68248;SHT30;55064;49.636;12.164;2023-08-06T17:07:41;14.33;91.99
68248;SHT30;55064;49.636;12.164;2023-08-06T17:10:09;14.27;91.70
68248;SHT30;55064;49.636;12.164;2023-08-06T17:12:34;14.27;92.04
68248;SHT30;55064;49.636;12.164;2023-08-06T17:15:01;14.24;91.77
68248;SHT30;55064;49.636;12.164;2023-08-06T17:17:26;14.19;91.52
68248;SHT30;55064;49.636;12.164;2023-08-06T17:19:54;14.19;91.55
68248;SHT30;55064;49.636;12.164;2023-08-06T17:22:23;14.14;91.91
68248;SHT30;55064;49.636;12.164;2023-08-06T17:24:51;14.10;91.64
68248;SHT30;55064;49.636;12.164;2023-08-06T17:27:16;14.13;92.44
68248;SHT30;55064;49.636;12.164;2023-08-06T17:29:43;14.05;91.36
68248;SHT30;55064;49.636;12.164;2023-08-06T17:32:08;14.06;91.07
68248;SHT30;55064;49.636;12.164;2023-08-06T17:34:35;14.12;91.53
68248;SHT30;55064;49.636;12.164;2023-08-06T17:37:02;14.14;91.84
68248;SHT30;55064;49.636;12.164;2023-08-06T17:39:31;14.17;91.37
68248;SHT30;55064;49.636;12.164;2023-08-06T17:41:58;14.13;91.00